Time;durP1;ratioP1;P1;durP2;ratioP2;P2;SDS_P1;SDS_P2;PMS_P1;PMS_P2;Temp;Humidity;BMP_temperature;BMP_pressure;BME280_temperature;BME280_humidity;BME280_pressure;Samples;Min_cycle;Max_cycle;Signal;HPM_P1;HPM_P2
2023/08/03 00:01:59;;;;;;;7.00;1.40;;;;;;;;;;5030021;28;20498;-80
2023/08/03 00:04:26;;;;;;;6.55;1.38;;;;;;;;;;5011868;28;20054;-80
2023/08/03 00:06:52;;;;;;;6.93;1.48;;;;;;;;;;5025456;28;20042;-80
2023/08/03 00:09:18;;;;;;;8.32;1.70;;;;;;;;;;5025290;28;20057;-80
2023/08/03 00:11:44;;;;;;;10.50;1.70;;;;;;;;;;5024882;28;20095;-80
2023/08/03 00:14:10;;;;;;;6.65;1.52;;;;;;;;;;5007990;28;20041;-79
2023/08/03 00:16:36;;;;;;;6.75;1.45;;;;;;;;;;5026330;28;20101;-79
2023/08/03 00:19:02;;;;;;;9.52;1.70;;;;;;;;;;5024691;28;20050;-79
2023/08/03 00:21:29;;;;;;;7.05;1.50;;;;;;;;;;5009478;28;20092;-79
2023/08/03 00:23:55;;;;;;;8.85;1.85;;;;;;;;;;5028445;28;20050;-80
2023/08/03 00:26:21;;;;;;;5.50;1.30;;;;;;;;;;5029202;28;20041;-80
2023/08/03 00:28:47;;;;;;;5.53;1.45;;;;;;;;;;5041365;28;20038;-80
2023/08/03 00:31:13;;;;;;;8.25;1.45;;;;;;;;;;5011710;28;20049;-80
2023/08/03 00:33:39;;;;;;;8.60;1.50;;;;;;;;;;5024660;28;20598;-79
2023/08/03 00:36:05;;;;;;;9.45;1.40;;;;;;;;;;5026569;28;20546;-79
2023/08/03 00:38:31;;;;;;;6.88;1.30;;;;;;;;;;5025872;28;20038;-78
2023/08/03 00:40:57;;;;;;;7.57;1.40;;;;;;;;;;5028211;28;20108;-80
2023/08/03 00:43:23;;;;;;;7.38;1.67;;;;;;;;;;5023345;28;20046;-79
2023/08/03 00:45:49;;;;;;;6.55;1.48;;;;;;;;;;5020843;28;20035;-79
2023/08/03 00:48:17;;;;;;;4.82;1.20;;;;;;;;;;5010294;28;20049;-79
2023/08/03 00:50:43;;;;;;;6.95;1.50;;;;;;;;;;5025100;28;20061;-79
2023/08/03 00:53:09;;;;;;;7.00;1.55;;;;;;;;;;5020979;28;20099;-79
2023/08/03 00:55:35;;;;;;;10.18;1.75;;;;;;;;;;5024378;28;20049;-79
2023/08/03 00:58:01;;;;;;;6.78;1.65;;;;;;;;;;5011185;28;20046;-80
2023/08/03 01:00:27;;;;;;;5.55;1.30;;;;;;;;;;5030458;28;20050;-79
2023/08/03 01:02:53;;;;;;;6.63;1.45;;;;;;;;;;5025610;28;20081;-80
2023/08/03 01:05:19;;;;;;;13.05;1.92;;;;;;;;;;5024549;28;20053;-80
2023/08/03 01:07:46;;;;;;;6.25;1.33;;;;;;;;;;5021897;28;20050;-80
2023/08/03 01:10:12;;;;;;;8.57;1.33;;;;;;;;;;5021034;28;20061;-79
2023/08/03 01:12:38;;;;;;;6.15;1.30;;;;;;;;;;5022351;28;20049;-80
2023/08/03 01:15:05;;;;;;;5.28;1.17;;;;;;;;;;5020914;28;20111;-80
2023/08/03 01:17:31;;;;;;;7.60;1.27;;;;;;;;;;5023554;28;20037;-80
2023/08/03 01:19:57;;;;;;;5.72;1.00;;;;;;;;;;5030497;28;20484;-79
2023/08/03 01:22:24;;;;;;;4.72;1.27;;;;;;;;;;5020627;28;20046;-79
2023/08/03 01:24:50;;;;;;;6.05;1.35;;;;;;;;;;5001710;28;20437;-80
2023/08/03 01:27:16;;;;;;;4.45;1.08;;;;;;;;;;5019820;28;20042;-79
2023/08/03 01:29:42;;;;;;;4.72;1.35;;;;;;;;;;5019414;28;20058;-80
2023/08/03 01:32:08;;;;;;;7.32;1.48;;;;;;;;;;5018802;28;20911;-79
2023/08/03 01:34:34;;;;;;;5.10;1.45;;;;;;;;;;5019819;28;20053;-80
2023/08/03 01:37:00;;;;;;;6.00;1.20;;;;;;;;;;5032420;28;20042;-80
2023/08/03 01:39:26;;;;;;;5.18;1.00;;;;;;;;;;5020335;28;20037;-80
2023/08/03 01:41:52;;;;;;;4.03;0.90;;;;;;;;;;5020162;28;20042;-79
2023/08/03 01:44:28;;;;;;;4.55;1.00;;;;;;;;;;5006853;28;20112;-80
2023/08/03 01:46:55;;;;;;;4.20;1.00;;;;;;;;;;5020925;28;20042;-80
2023/08/03 01:49:22;;;;;;;4.70;0.98;;;;;;;;;;5020129;28;20104;-80
2023/08/03 01:51:48;;;;;;;6.22;1.23;;;;;;;;;;5020404;28;20045;-80
2023/08/03 01:54:14;;;;;;;4.70;1.20;;;;;;;;;;5017527;28;20042;-80
2023/08/03 01:56:40;;;;;;;6.25;1.35;;;;;;;;;;5000389;28;20519;-79
2023/08/03 01:59:06;;;;;;;7.63;1.20;;;;;;;;;;5020295;28;20061;-80
2023/08/03 02:01:32;;;;;;;3.60;1.17;;;;;;;;;;5021407;28;20053;-80
2023/08/03 02:03:58;;;;;;;7.70;1.50;;;;;;;;;;5020799;28;20492;-81
2023/08/03 02:06:24;;;;;;;6.00;1.40;;;;;;;;;;5021158;28;20038;-81
2023/08/03 02:08:50;;;;;;;5.18;1.30;;;;;;;;;;5022132;28;20045;-80
2023/08/03 02:11:16;;;;;;;5.38;1.40;;;;;;;;;;5004550;28;20133;-80
2023/08/03 02:13:42;;;;;;;6.72;1.58;;;;;;;;;;5005032;28;20050;-80
2023/08/03 02:16:10;;;;;;;4.85;1.25;;;;;;;;;;5004640;28;20472;-79
2023/08/03 02:18:37;;;;;;;4.90;1.20;;;;;;;;;;5019881;28;20045;-79
2023/08/03 02:21:07;;;;;;;5.28;1.48;;;;;;;;;;5013826;28;20049;-80
2023/08/03 02:23:33;;;;;;;4.47;1.30;;;;;;;;;;5004163;28;20501;-79
2023/08/03 02:26:03;;;;;;;3.75;1.10;;;;;;;;;;5021063;28;20105;-79
2023/08/03 02:28:32;;;;;;;4.18;1.00;;;;;;;;;;5020791;28;20041;-80
2023/08/03 02:30:58;;;;;;;6.28;1.42;;;;;;;;;;5018625;28;20041;-81
2023/08/03 02:33:25;;;;;;;4.40;1.30;;;;;;;;;;5022629;28;20046;-79
2023/08/03 02:35:51;;;;;;;5.38;1.15;;;;;;;;;;5022677;28;20105;-80
2023/08/03 02:38:17;;;;;;;4.78;1.30;;;;;;;;;;5023295;28;20048;-79
2023/08/03 02:40:43;;;;;;;4.07;1.40;;;;;;;;;;5016933;28;20042;-79
2023/08/03 02:43:09;;;;;;;3.80;1.40;;;;;;;;;;5020211;28;20042;-79
2023/08/03 02:45:36;;;;;;;5.97;1.27;;;;;;;;;;5021046;28;20069;-80
2023/08/03 02:48:02;;;;;;;3.03;1.15;;;;;;;;;;5024700;28;20067;-80
2023/08/03 02:50:28;;;;;;;3.97;1.25;;;;;;;;;;5023278;28;20463;-79
2023/08/03 02:52:54;;;;;;;7.07;1.40;;;;;;;;;;5024375;28;20129;-79
2023/08/03 02:55:20;;;;;;;4.10;1.33;;;;;;;;;;5021264;28;20045;-79
2023/08/03 02:57:46;;;;;;;3.17;1.25;;;;;;;;;;5019534;28;20052;-79
2023/08/03 03:00:12;;;;;;;5.18;1.52;;;;;;;;;;5018471;28;20050;-79
2023/08/03 03:02:38;;;;;;;3.78;1.27;;;;;;;;;;5018633;28;20062;-80
2023/08/03 03:05:04;;;;;;;3.22;1.27;;;;;;;;;;5021222;28;20077;-80
2023/08/03 03:07:31;;;;;;;4.43;1.50;;;;;;;;;;5021271;28;20444;-79
2023/08/03 03:09:57;;;;;;;4.60;1.70;;;;;;;;;;5003101;28;20102;-79
2023/08/03 03:12:24;;;;;;;4.22;1.70;;;;;;;;;;4999138;28;20436;-79
2023/08/03 03:14:50;;;;;;;5.47;1.67;;;;;;;;;;5002013;28;20081;-79
2023/08/03 03:17:16;;;;;;;5.35;2.25;;;;;;;;;;5019411;28;20053;-79
2023/08/03 03:19:42;;;;;;;9.15;2.65;;;;;;;;;;5020476;28;20092;-80
2023/08/03 03:22:08;;;;;;;6.20;3.33;;;;;;;;;;5019716;28;20045;-80
2023/08/03 03:24:34;;;;;;;6.03;3.00;;;;;;;;;;5003397;28;20038;-79
2023/08/03 03:27:01;;;;;;;6.30;3.25;;;;;;;;;;5028397;28;20577;-80
2023/08/03 03:29:27;;;;;;;10.02;3.75;;;;;;;;;;5029975;28;20096;-80
2023/08/03 03:31:53;;;;;;;8.15;3.70;;;;;;;;;;5026947;28;20091;-80
2023/08/03 03:34:19;;;;;;;9.18;3.72;;;;;;;;;;5023119;28;20038;-80
2023/08/03 03:36:45;;;;;;;8.07;4.22;;;;;;;;;;5022763;28;20041;-80
2023/08/03 03:39:11;;;;;;;8.60;3.53;;;;;;;;;;5022002;28;20830;-80
2023/08/03 03:41:37;;;;;;;10.13;4.60;;;;;;;;;;5021777;28;20107;-81
2023/08/03 03:44:03;;;;;;;11.57;4.47;;;;;;;;;;5019705;28;20065;-80
2023/08/03 03:46:30;;;;;;;8.85;5.10;;;;;;;;;;5010691;28;20042;-80
2023/08/03 03:48:56;;;;;;;8.85;4.50;;;;;;;;;;5021725;28;20077;-79
2023/08/03 03:51:22;;;;;;;10.10;4.65;;;;;;;;;;5021016;28;20050;-79
2023/08/03 03:53:48;;;;;;;11.05;5.00;;;;;;;;;;5021525;28;20136;-79
2023/08/03 03:56:14;;;;;;;9.57;5.20;;;;;;;;;;5018766;28;20129;-79
2023/08/03 03:58:40;;;;;;;12.27;5.20;;;;;;;;;;5017731;28;20064;-80
2023/08/03 04:01:06;;;;;;;12.27;5.55;;;;;;;;;;5019113;28;20156;-80
2023/08/03 04:03:32;;;;;;;11.77;5.65;;;;;;;;;;5017281;28;20045;-80
2023/08/03 04:05:58;;;;;;;14.50;5.68;;;;;;;;;;5018943;28;20038;-79
2023/08/03 04:08:24;;;;;;;12.30;5.13;;;;;;;;;;5016056;28;20495;-80
2023/08/03 04:10:50;;;;;;;14.00;5.82;;;;;;;;;;5018942;28;20069;-80
2023/08/03 04:13:16;;;;;;;14.23;5.30;;;;;;;;;;5019719;28;20061;-79
2023/08/03 04:15:42;;;;;;;13.77;5.30;;;;;;;;;;4988638;28;20045;-80
2023/08/03 04:18:09;;;;;;;12.85;5.32;;;;;;;;;;4994457;28;20114;-81
2023/08/03 04:20:35;;;;;;;11.40;4.18;;;;;;;;;;5016417;28;20046;-80
2023/08/03 04:23:01;;;;;;;15.13;4.32;;;;;;;;;;5018273;28;20049;-80
2023/08/03 04:25:27;;;;;;;14.30;3.78;;;;;;;;;;5020748;28;20053;-81
2023/08/03 04:27:53;;;;;;;14.52;4.85;;;;;;;;;;5014819;28;20077;-79
2023/08/03 04:30:19;;;;;;;14.77;4.18;;;;;;;;;;5010676;28;20065;-79
2023/08/03 04:32:45;;;;;;;11.00;3.90;;;;;;;;;;5019982;28;20354;-79
2023/08/03 04:35:11;;;;;;;12.95;4.80;;;;;;;;;;5020626;28;20404;-79
2023/08/03 04:37:37;;;;;;;14.00;3.47;;;;;;;;;;5018763;28;20045;-78
2023/08/03 04:40:04;;;;;;;17.20;4.20;;;;;;;;;;5020391;28;20042;-79
2023/08/03 04:42:30;;;;;;;15.73;3.83;;;;;;;;;;5020457;28;20046;-80
2023/08/03 04:44:56;;;;;;;15.40;4.90;;;;;;;;;;5019346;28;20049;-80
2023/08/03 04:47:22;;;;;;;13.23;4.30;;;;;;;;;;5005488;28;20428;-79
2023/08/03 04:49:48;;;;;;;15.80;4.25;;;;;;;;;;5020675;28;20048;-80
2023/08/03 04:52:15;;;;;;;17.85;4.30;;;;;;;;;;5020555;28;20057;-80
2023/08/03 04:54:41;;;;;;;14.45;3.83;;;;;;;;;;5021517;28;20084;-80
2023/08/03 04:57:07;;;;;;;14.13;3.67;;;;;;;;;;5020767;28;20045;-80
2023/08/03 04:59:33;;;;;;;19.15;3.65;;;;;;;;;;5022859;28;20068;-80
2023/08/03 05:01:59;;;;;;;17.15;3.40;;;;;;;;;;5021064;28;20117;-81
2023/08/03 05:04:25;;;;;;;18.50;3.40;;;;;;;;;;5023949;28;20057;-79
2023/08/03 05:06:52;;;;;;;12.75;3.30;;;;;;;;;;5016573;28;20038;-79
2023/08/03 05:09:18;;;;;;;14.43;3.10;;;;;;;;;;5021258;28;20050;-79
2023/08/03 05:11:44;;;;;;;13.57;2.70;;;;;;;;;;5022801;28;20049;-79
2023/08/03 05:14:10;;;;;;;12.90;3.22;;;;;;;;;;5024669;28;20049;-79
2023/08/03 05:16:36;;;;;;;11.35;2.95;;;;;;;;;;5005111;28;20049;-79
2023/08/03 05:19:02;;;;;;;14.50;3.00;;;;;;;;;;5022897;28;20046;-80
2023/08/03 05:21:28;;;;;;;15.73;3.13;;;;;;;;;;5025764;28;20048;-81
2023/08/03 05:23:54;;;;;;;16.05;3.42;;;;;;;;;;5024332;28;20122;-79
2023/08/03 05:26:20;;;;;;;12.93;3.08;;;;;;;;;;5005210;28;20057;-80
2023/08/03 05:28:46;;;;;;;14.73;3.03;;;;;;;;;;5023584;28;20041;-80
2023/08/03 05:31:12;;;;;;;13.70;2.95;;;;;;;;;;5020389;28;20188;-80
2023/08/03 05:33:38;;;;;;;13.68;2.88;;;;;;;;;;4997301;28;20054;-80
2023/08/03 05:36:04;;;;;;;14.68;3.20;;;;;;;;;;5014472;28;20038;-80
2023/08/03 05:38:30;;;;;;;9.13;3.05;;;;;;;;;;5025571;28;20046;-81
2023/08/03 05:40:56;;;;;;;14.27;3.45;;;;;;;;;;5027289;28;20046;-80
2023/08/03 05:43:24;;;;;;;14.95;3.17;;;;;;;;;;5027741;28;20050;-80
2023/08/03 05:45:57;;;;;;;11.50;3.20;;;;;;;;;;5026067;28;20038;-80
2023/08/03 05:48:23;;;;;;;10.32;2.80;;;;;;;;;;5010667;28;20053;-80
2023/08/03 05:50:51;;;;;;;13.52;3.55;;;;;;;;;;5025065;28;20038;-80
2023/08/03 05:53:17;;;;;;;10.48;3.05;;;;;;;;;;5028355;28;20057;-80
2023/08/03 05:55:44;;;;;;;12.45;3.28;;;;;;;;;;4994611;28;20056;-81
2023/08/03 05:58:14;;;;;;;14.02;3.30;;;;;;;;;;5010208;28;20544;-80
2023/08/03 06:00:43;;;;;;;12.25;3.17;;;;;;;;;;5025426;28;20073;-81
2023/08/03 06:03:13;;;;;;;9.95;2.60;;;;;;;;;;5027320;28;20048;-80
2023/08/03 06:05:40;;;;;;;10.57;3.05;;;;;;;;;;5022293;28;20038;-80
2023/08/03 06:08:32;;;;;;;12.43;3.15;;;;;;;;;;5018973;28;20354;-79
2023/08/03 06:11:01;;;;;;;12.07;3.35;;;;;;;;;;5021558;28;20056;-80
2023/08/03 06:13:28;;;;;;;13.52;3.05;;;;;;;;;;5029456;28;20124;-79
2023/08/03 06:15:54;;;;;;;16.23;3.28;;;;;;;;;;5029039;28;20081;-80
2023/08/03 06:18:21;;;;;;;13.63;2.95;;;;;;;;;;5028877;28;20172;-79
2023/08/03 06:20:51;;;;;;;14.35;2.95;;;;;;;;;;5027067;28;20428;-80
2023/08/03 06:23:18;;;;;;;15.35;2.78;;;;;;;;;;5010061;28;20159;-80
2023/08/03 06:25:45;;;;;;;11.15;3.17;;;;;;;;;;5029316;28;20046;-80
2023/08/03 06:28:11;;;;;;;11.40;2.58;;;;;;;;;;5031077;28;20054;-80
2023/08/03 06:30:37;;;;;;;9.98;2.95;;;;;;;;;;5008875;28;20038;-80
2023/08/03 06:33:03;;;;;;;11.30;2.83;;;;;;;;;;4994732;28;20484;-80
2023/08/03 06:35:29;;;;;;;12.80;2.80;;;;;;;;;;5024080;28;20049;-80
2023/08/03 06:37:55;;;;;;;11.68;2.65;;;;;;;;;;5010870;28;20069;-79
2023/08/03 06:40:21;;;;;;;11.27;2.50;;;;;;;;;;5031746;28;20118;-80
2023/08/03 06:42:47;;;;;;;11.35;2.47;;;;;;;;;;5031183;28;20042;-80
2023/08/03 06:45:13;;;;;;;11.60;2.40;;;;;;;;;;5026475;28;20065;-80
2023/08/03 06:47:40;;;;;;;12.07;2.47;;;;;;;;;;5005445;28;20445;-80
2023/08/03 06:50:08;;;;;;;10.88;2.17;;;;;;;;;;5030436;28;20081;-80
2023/08/03 06:52:34;;;;;;;13.20;2.38;;;;;;;;;;5031183;28;20081;-80
2023/08/03 06:55:00;;;;;;;10.95;2.28;;;;;;;;;;5029609;28;20273;-80
2023/08/03 06:57:26;;;;;;;12.75;2.38;;;;;;;;;;5029687;28;20046;-80
2023/08/03 06:59:55;;;;;;;9.65;2.20;;;;;;;;;;4993901;28;20413;-79
2023/08/03 07:02:21;;;;;;;8.80;2.10;;;;;;;;;;5009486;28;20050;-80
2023/08/03 07:04:47;;;;;;;9.25;2.40;;;;;;;;;;4999356;28;20038;-80
2023/08/03 07:07:16;;;;;;;13.35;2.55;;;;;;;;;;5029748;28;20053;-79
2023/08/03 07:09:48;;;;;;;10.25;2.40;;;;;;;;;;5029538;28;20081;-80
2023/08/03 07:12:14;;;;;;;11.25;2.28;;;;;;;;;;5029121;28;20104;-80
2023/08/03 07:14:40;;;;;;;9.20;1.70;;;;;;;;;;5011888;28;20366;-80
2023/08/03 07:17:06;;;;;;;10.07;2.33;;;;;;;;;;5026651;28;20124;-79
2023/08/03 07:19:32;;;;;;;14.23;2.03;;;;;;;;;;5022674;28;20042;-79
2023/08/03 07:21:58;;;;;;;8.45;2.30;;;;;;;;;;4995880;28;20045;-79
2023/08/03 07:24:28;;;;;;;7.38;1.65;;;;;;;;;;5010295;28;20049;-80
2023/08/03 07:26:54;;;;;;;9.38;1.83;;;;;;;;;;5027098;28;20519;-80
2023/08/03 07:29:20;;;;;;;9.77;1.88;;;;;;;;;;5028322;28;20049;-80
2023/08/03 07:31:48;;;;;;;6.28;1.52;;;;;;;;;;5025173;28;20050;-79
2023/08/03 07:34:14;;;;;;;5.32;1.08;;;;;;;;;;5022307;28;20098;-79
2023/08/03 07:36:40;;;;;;;7.70;1.40;;;;;;;;;;5020214;28;20042;-79
2023/08/03 07:39:06;;;;;;;8.15;1.35;;;;;;;;;;5006886;28;20436;-79
2023/08/03 07:41:32;;;;;;;6.93;1.13;;;;;;;;;;5025541;28;20069;-79
2023/08/03 07:43:58;;;;;;;4.25;1.00;;;;;;;;;;5022914;28;20049;-79
2023/08/03 07:46:24;;;;;;;6.78;1.40;;;;;;;;;;5017604;28;20080;-79
2023/08/03 07:48:51;;;;;;;6.95;1.20;;;;;;;;;;4997735;28;20054;-79
2023/08/03 07:51:17;;;;;;;6.28;1.30;;;;;;;;;;5017396;28;20045;-78
2023/08/03 07:53:44;;;;;;;6.60;1.15;;;;;;;;;;5008878;28;20085;-78
2023/08/03 07:56:16;;;;;;;4.78;1.20;;;;;;;;;;5000410;28;20048;-78
2023/08/03 07:58:42;;;;;;;7.15;1.02;;;;;;;;;;5010839;28;20088;-78
2023/08/03 08:01:08;;;;;;;4.90;0.90;;;;;;;;;;5007761;28;20050;-78
2023/08/03 08:03:41;;;;;;;5.95;1.30;;;;;;;;;;4999581;28;20038;-77
2023/08/03 08:06:08;;;;;;;6.28;0.90;;;;;;;;;;5016493;28;20045;-78
2023/08/03 08:08:34;;;;;;;3.85;1.08;;;;;;;;;;5013978;28;20042;-78
2023/08/03 08:11:00;;;;;;;6.00;1.20;;;;;;;;;;5007235;28;20132;-78
2023/08/03 08:13:26;;;;;;;7.53;1.30;;;;;;;;;;5016404;28;20453;-78
2023/08/03 08:15:57;;;;;;;5.00;1.00;;;;;;;;;;5011670;28;20045;-78
2023/08/03 08:18:23;;;;;;;5.00;1.00;;;;;;;;;;5000141;28;20045;-79
2023/08/03 08:20:54;;;;;;;5.38;1.10;;;;;;;;;;5021004;28;20109;-78
2023/08/03 08:23:20;;;;;;;5.63;0.93;;;;;;;;;;5019407;28;20100;-79
2023/08/03 08:25:46;;;;;;;6.13;0.88;;;;;;;;;;5015981;28;20046;-78
2023/08/03 08:28:12;;;;;;;6.50;1.08;;;;;;;;;;5016042;28;20045;-78
2023/08/03 08:30:39;;;;;;;5.70;0.98;;;;;;;;;;5013069;28;20065;-79
2023/08/03 08:33:05;;;;;;;6.40;1.27;;;;;;;;;;5018596;28;20042;-78
2023/08/03 08:35:31;;;;;;;4.05;0.90;;;;;;;;;;5015128;28;20112;-79
2023/08/03 08:37:59;;;;;;;5.35;1.00;;;;;;;;;;5015092;28;20120;-77
2023/08/03 08:40:25;;;;;;;5.63;1.13;;;;;;;;;;5018204;28;20049;-78
2023/08/03 08:42:52;;;;;;;5.60;0.80;;;;;;;;;;5019846;28;20045;-79
2023/08/03 08:45:18;;;;;;;3.40;0.90;;;;;;;;;;5017590;28;20045;-77
2023/08/03 08:47:44;;;;;;;4.63;0.80;;;;;;;;;;5005309;28;20515;-77
2023/08/03 08:50:10;;;;;;;6.28;0.98;;;;;;;;;;5003592;28;20042;-77
2023/08/03 08:52:37;;;;;;;4.30;0.80;;;;;;;;;;5006827;28;20369;-78
2023/08/03 08:55:23;;;;;;;5.90;1.00;;;;;;;;;;5001189;28;20046;-78
2023/08/03 08:57:50;;;;;;;5.38;1.23;;;;;;;;;;5017742;28;20113;-78
2023/08/03 09:00:16;;;;;;;5.28;0.90;;;;;;;;;;5019138;28;20058;-78
2023/08/03 09:02:42;;;;;;;4.03;0.85;;;;;;;;;;5001511;28;20126;-77
2023/08/03 09:05:15;;;;;;;3.55;1.00;;;;;;;;;;5019302;28;20450;-79
2023/08/03 09:07:42;;;;;;;4.95;0.90;;;;;;;;;;5016638;28;20050;-77
2023/08/03 09:10:08;;;;;;;1.52;0.60;;;;;;;;;;5001037;28;20485;-78
2023/08/03 09:12:35;;;;;;;5.22;0.70;;;;;;;;;;5009490;28;20092;-77
2023/08/03 09:15:01;;;;;;;4.10;0.60;;;;;;;;;;5010810;28;20188;-77
2023/08/03 09:17:28;;;;;;;4.25;0.88;;;;;;;;;;5012025;28;20108;-78
2023/08/03 09:19:55;;;;;;;5.68;0.80;;;;;;;;;;5013924;28;20050;-78
2023/08/03 09:22:24;;;;;;;5.63;0.82;;;;;;;;;;5011278;28;20073;-78
2023/08/03 09:25:00;;;;;;;2.85;0.90;;;;;;;;;;5009658;28;20046;-77
2023/08/03 09:27:27;;;;;;;5.22;0.90;;;;;;;;;;5008865;28;20042;-76
2023/08/03 09:29:59;;;;;;;4.32;0.70;;;;;;;;;;4995177;28;20504;-78
2023/08/03 09:32:30;;;;;;;4.53;0.70;;;;;;;;;;5016415;28;20054;-78
2023/08/03 09:34:56;;;;;;;3.45;0.70;;;;;;;;;;5012427;28;20048;-77
2023/08/03 09:37:33;;;;;;;2.58;0.60;;;;;;;;;;5013060;28;20046;-77
2023/08/03 09:39:59;;;;;;;4.38;0.85;;;;;;;;;;5015198;28;20042;-78
2023/08/03 09:42:27;;;;;;;5.00;0.88;;;;;;;;;;5021508;28;20461;-79
2023/08/03 09:44:54;;;;;;;5.82;0.63;;;;;;;;;;5015509;28;20098;-77
2023/08/03 09:47:20;;;;;;;4.15;0.80;;;;;;;;;;5016065;28;20065;-78
2023/08/03 09:49:46;;;;;;;5.13;0.80;;;;;;;;;;5017899;28;20060;-78
2023/08/03 09:52:16;;;;;;;2.97;0.60;;;;;;;;;;5017376;28;20049;-78
2023/08/03 09:54:56;;;;;;;4.47;0.75;;;;;;;;;;5016232;28;20049;-78
2023/08/03 09:57:28;;;;;;;3.00;0.70;;;;;;;;;;5019739;28;20046;-78
2023/08/03 09:59:58;;;;;;;4.22;0.90;;;;;;;;;;5021009;28;20125;-77
2023/08/03 10:02:27;;;;;;;3.53;0.70;;;;;;;;;;5017596;28;20097;-78
2023/08/03 10:04:57;;;;;;;5.55;1.02;;;;;;;;;;5017074;28;20061;-78
2023/08/03 10:07:25;;;;;;;4.95;0.90;;;;;;;;;;5004633;28;20043;-69
2023/08/03 10:09:54;;;;;;;7.75;1.30;;;;;;;;;;5001543;28;20049;-69
2023/08/03 10:12:22;;;;;;;30.42;11.13;;;;;;;;;;5012395;28;20134;-69
2023/08/03 10:14:51;;;;;;;8.98;2.15;;;;;;;;;;5002532;28;20119;-68
2023/08/03 10:17:18;;;;;;;4.35;0.80;;;;;;;;;;5008609;28;20114;-68
2023/08/03 10:19:44;;;;;;;3.72;0.90;;;;;;;;;;5010536;28;20049;-69
2023/08/03 10:22:11;;;;;;;3.45;0.85;;;;;;;;;;5010094;28;20088;-69
2023/08/03 10:24:37;;;;;;;3.85;0.70;;;;;;;;;;5008812;28;20613;-69
2023/08/03 10:27:19;;;;;;;4.95;0.77;;;;;;;;;;5008236;28;20046;-69
2023/08/03 10:29:51;;;;;;;2.42;0.63;;;;;;;;;;5013014;28;20069;-69
2023/08/03 10:32:22;;;;;;;4.03;0.82;;;;;;;;;;5007400;28;20054;-68
2023/08/03 10:34:48;;;;;;;4.22;0.68;;;;;;;;;;4982240;28;20054;-68
2023/08/03 10:37:14;;;;;;;4.40;0.85;;;;;;;;;;5009877;28;20538;-68
2023/08/03 10:39:49;;;;;;;5.97;1.00;;;;;;;;;;5014490;28;20500;-68
2023/08/03 10:42:35;;;;;;;4.55;1.10;;;;;;;;;;5012961;28;20038;-68
2023/08/03 10:45:20;;;;;;;5.75;0.70;;;;;;;;;;4999472;28;20058;-68
2023/08/03 10:47:46;;;;;;;5.07;1.15;;;;;;;;;;5012026;28;20046;-68
2023/08/03 10:50:12;;;;;;;6.32;1.00;;;;;;;;;;5014555;28;20057;-69
2023/08/03 10:52:38;;;;;;;7.32;0.90;;;;;;;;;;5013322;28;20058;-69
2023/08/03 10:55:25;;;;;;;4.88;1.00;;;;;;;;;;5006283;28;20468;-68
2023/08/03 10:57:51;;;;;;;6.15;1.00;;;;;;;;;;5012376;28;20423;-68
2023/08/03 11:00:17;;;;;;;5.80;1.25;;;;;;;;;;5013231;28;20144;-67
2023/08/03 11:02:44;;;;;;;6.25;1.10;;;;;;;;;;5010217;28;20720;-72
2023/08/03 11:05:12;;;;;;;3.95;0.82;;;;;;;;;;5013481;28;20064;-76
2023/08/03 11:07:42;;;;;;;4.55;1.15;;;;;;;;;;5014126;28;20052;-69
2023/08/03 11:10:10;;;;;;;5.43;1.33;;;;;;;;;;5012381;28;20057;-70
2023/08/03 11:12:36;;;;;;;6.07;1.08;;;;;;;;;;5014749;28;20381;-70
2023/08/03 11:15:03;;;;;;;6.22;1.10;;;;;;;;;;5009221;28;20047;-69
2023/08/03 11:17:30;;;;;;;6.30;0.90;;;;;;;;;;5006880;28;20050;-72
2023/08/03 11:19:57;;;;;;;4.43;0.93;;;;;;;;;;5012924;28;20054;-70
2023/08/03 11:22:24;;;;;;;5.47;0.80;;;;;;;;;;5003922;28;20423;-69
2023/08/03 11:24:51;;;;;;;6.38;1.40;;;;;;;;;;5014334;28;20046;-68
2023/08/03 11:27:18;;;;;;;6.03;1.00;;;;;;;;;;4995444;28;20042;-69
2023/08/03 11:29:44;;;;;;;6.30;1.27;;;;;;;;;;5014358;28;20133;-69
2023/08/03 11:32:11;;;;;;;6.72;1.40;;;;;;;;;;5014258;28;20050;-69
2023/08/03 11:34:40;;;;;;;5.40;1.05;;;;;;;;;;5012984;28;20517;-69
2023/08/03 11:37:07;;;;;;;10.23;1.30;;;;;;;;;;4994452;28;20057;-68
2023/08/03 11:39:33;;;;;;;6.25;1.02;;;;;;;;;;5001479;28;20126;-69
2023/08/03 11:42:01;;;;;;;8.45;1.25;;;;;;;;;;5006817;28;20378;-69
2023/08/03 11:44:27;;;;;;;9.40;3.03;;;;;;;;;;5013710;28;20061;-69
2023/08/03 11:47:03;;;;;;;7.22;1.20;;;;;;;;;;5008707;28;20050;-69
2023/08/03 11:49:30;;;;;;;5.15;1.15;;;;;;;;;;5012978;28;20042;-69
2023/08/03 11:51:59;;;;;;;6.47;1.10;;;;;;;;;;5012324;28;20108;-69
2023/08/03 11:54:27;;;;;;;6.07;1.02;;;;;;;;;;5009172;28;20050;-69
2023/08/03 11:56:53;;;;;;;4.78;1.10;;;;;;;;;;5013543;28;20065;-69
2023/08/03 11:59:20;;;;;;;4.28;1.10;;;;;;;;;;5014195;28;20041;-69
2023/08/03 12:01:47;;;;;;;5.03;1.20;;;;;;;;;;5012265;28;20041;-69
2023/08/03 12:04:13;;;;;;;4.07;0.95;;;;;;;;;;5010939;28;20567;-69
2023/08/03 12:06:49;;;;;;;6.35;1.27;;;;;;;;;;5013744;28;20045;-69
2023/08/03 12:09:19;;;;;;;5.47;1.05;;;;;;;;;;4996206;28;20082;-69
2023/08/03 12:11:45;;;;;;;7.07;1.40;;;;;;;;;;5012123;28;20481;-69
2023/08/03 12:14:11;;;;;;;5.47;1.05;;;;;;;;;;5014139;28;20049;-69
2023/08/03 12:16:37;;;;;;;8.07;1.17;;;;;;;;;;5014187;28;20045;-69
2023/08/03 12:19:08;;;;;;;4.00;0.85;;;;;;;;;;4979294;28;20096;-69
2023/08/03 12:21:37;;;;;;;4.95;0.80;;;;;;;;;;5013080;28;20117;-69
2023/08/03 12:24:04;;;;;;;4.70;1.20;;;;;;;;;;4996249;28;20050;-69
2023/08/03 12:26:31;;;;;;;4.47;1.20;;;;;;;;;;5013476;28;20054;-69
2023/08/03 12:28:57;;;;;;;3.78;0.77;;;;;;;;;;5013627;28;20077;-69
2023/08/03 12:31:24;;;;;;;4.45;0.90;;;;;;;;;;5012010;28;20050;-69
2023/08/03 12:33:50;;;;;;;5.13;1.65;;;;;;;;;;5011580;28;20092;-69
2023/08/03 12:36:18;;;;;;;5.25;0.98;;;;;;;;;;5013253;28;20046;-69
2023/08/03 12:38:44;;;;;;;6.47;1.13;;;;;;;;;;5012367;28;20060;-69
2023/08/03 12:41:10;;;;;;;5.05;0.98;;;;;;;;;;5012187;28;20049;-69
2023/08/03 12:43:41;;;;;;;4.57;0.85;;;;;;;;;;4994896;28;20050;-69
2023/08/03 12:46:08;;;;;;;5.50;0.90;;;;;;;;;;5012295;28;20053;-69
2023/08/03 12:48:36;;;;;;;4.85;0.90;;;;;;;;;;5011082;28;20524;-69
2023/08/03 12:51:02;;;;;;;4.80;0.90;;;;;;;;;;4994658;28;20530;-69
2023/08/03 12:53:28;;;;;;;4.05;0.75;;;;;;;;;;5013463;28;20050;-69
2023/08/03 12:55:54;;;;;;;4.47;1.00;;;;;;;;;;5012653;28;20057;-69
2023/08/03 12:58:20;;;;;;;4.78;0.90;;;;;;;;;;5004247;28;20515;-69
2023/08/03 13:00:47;;;;;;;5.57;0.82;;;;;;;;;;5011985;28;20049;-69
2023/08/03 13:03:14;;;;;;;5.05;1.10;;;;;;;;;;5003581;28;20050;-69
2023/08/03 13:05:42;;;;;;;6.70;1.20;;;;;;;;;;5005275;28;20057;-69
2023/08/03 13:08:08;;;;;;;3.88;0.90;;;;;;;;;;5008740;28;20046;-69
2023/08/03 13:10:34;;;;;;;5.75;0.90;;;;;;;;;;5011835;28;20050;-69
2023/08/03 13:13:00;;;;;;;3.13;0.80;;;;;;;;;;5009724;28;20054;-69
2023/08/03 13:15:26;;;;;;;3.40;0.77;;;;;;;;;;4993039;28;20038;-69
2023/08/03 13:17:52;;;;;;;4.05;0.80;;;;;;;;;;4992985;28;20050;-69
2023/08/03 13:20:18;;;;;;;3.30;0.73;;;;;;;;;;4998070;28;20125;-69
2023/08/03 13:22:45;;;;;;;3.45;0.80;;;;;;;;;;5012144;28;20045;-67
2023/08/03 13:25:11;;;;;;;4.13;0.90;;;;;;;;;;5011896;28;20054;-68
2023/08/03 13:27:36;;;;;;;4.35;0.90;;;;;;;;;;5012802;28;20480;-69
2023/08/03 13:30:03;;;;;;;6.60;1.60;;;;;;;;;;4994726;28;20140;-69
2023/08/03 13:32:29;;;;;;;6.53;1.40;;;;;;;;;;5012492;28;20062;-69
2023/08/03 13:34:55;;;;;;;6.97;1.67;;;;;;;;;;5012838;28;20050;-69
2023/08/03 13:37:21;;;;;;;6.40;1.42;;;;;;;;;;5012269;28;20046;-69
2023/08/03 13:39:47;;;;;;;8.02;1.70;;;;;;;;;;5012303;28;20057;-69
2023/08/03 13:42:14;;;;;;;6.20;1.20;;;;;;;;;;4995481;28;20581;-69
2023/08/03 13:44:40;;;;;;;6.93;1.60;;;;;;;;;;4992820;28;20054;-69
2023/08/03 13:47:06;;;;;;;6.72;1.30;;;;;;;;;;4992772;28;20070;-69
2023/08/03 13:49:36;;;;;;;7.82;1.70;;;;;;;;;;5009069;28;20060;-68
2023/08/03 13:52:02;;;;;;;6.22;1.45;;;;;;;;;;5004586;28;20046;-69
2023/08/03 13:54:28;;;;;;;8.35;1.83;;;;;;;;;;4993152;28;20047;-69
2023/08/03 13:56:54;;;;;;;7.28;1.40;;;;;;;;;;4999827;28;20447;-69
2023/08/03 13:59:20;;;;;;;5.93;1.25;;;;;;;;;;5010507;28;20125;-69
2023/08/03 14:01:46;;;;;;;6.30;1.30;;;;;;;;;;5013047;28;20056;-70
2023/08/03 14:04:16;;;;;;;6.38;1.20;;;;;;;;;;5011085;28;20061;-68
2023/08/03 14:06:42;;;;;;;4.43;1.10;;;;;;;;;;5014433;28;20397;-69
2023/08/03 14:09:11;;;;;;;6.40;1.10;;;;;;;;;;5014222;28;20053;-69
2023/08/03 14:11:37;;;;;;;4.72;1.08;;;;;;;;;;5006560;28;20493;-68
2023/08/03 14:14:03;;;;;;;7.43;1.25;;;;;;;;;;5005399;28;20068;-69
2023/08/03 14:16:30;;;;;;;5.80;1.25;;;;;;;;;;5012463;28;20050;-69
2023/08/03 14:18:56;;;;;;;6.05;1.52;;;;;;;;;;5015490;28;20056;-69
2023/08/03 14:21:22;;;;;;;10.25;1.70;;;;;;;;;;5016000;28;20492;-69
2023/08/03 14:23:48;;;;;;;7.80;1.67;;;;;;;;;;4997450;28;20264;-68
2023/08/03 14:26:14;;;;;;;10.55;1.80;;;;;;;;;;5016093;28;20171;-68
2023/08/03 14:28:40;;;;;;;9.48;1.98;;;;;;;;;;5015434;28;20045;-69
2023/08/03 14:31:07;;;;;;;9.68;2.10;;;;;;;;;;5014974;28;20053;-69
2023/08/03 14:33:34;;;;;;;9.73;2.22;;;;;;;;;;4998185;28;20042;-69
2023/08/03 14:36:00;;;;;;;10.65;2.40;;;;;;;;;;5015829;28;20051;-69
2023/08/03 14:38:28;;;;;;;8.93;2.17;;;;;;;;;;5015700;28;20432;-79
2023/08/03 14:40:54;;;;;;;9.95;2.22;;;;;;;;;;4991645;28;20054;-76